sensor_id;sensor_type;location;lat;lon;timestamp;temperature;humidity
14144;DHT22;7152;48.348;10.980;2022-12-26T00:00:57;6.50;99.90
14144;DHT22;7152;48.348;10.980;2022-12-26T00:03:23;6.50;99.90
14144;DHT22;7152;48.348;10.980;2022-12-26T00:05:49;6.60;99.90
14144;DHT22;7152;48.348;10.980;2022-12-26T00:08:15;6.60;99.90
14144;DHT22;7152;48.348;10.980;2022-12-26T00:10:40;6.60;99.90
14144;DHT22;7152;48.348;10.980;2022-12-26T00:13:06;6.60;99.90
14144;DHT22;7152;48.348;10.980;2022-12-26T00:15:32;6.70;99.90
14144;DHT22;7152;48.348;10.980;2022-12-26T00:17:57;6.60;99.90
14144;DHT22;7152;48.348;10.980;2022-12-26T00:20:23;6.70;99.90
14144;DHT22;7152;48.348;10.980;2022-12-26T00:22:49;6.70;99.90
14144;DHT22;7152;48.348;10.980;2022-12-26T00:25:14;6.70;99.90
14144;DHT22;7152;48.348;10.980;2022-12-26T00:27:40;6.70;99.90
14144;DHT22;7152;48.348;10.980;2022-12-26T00:30:06;6.70;99.90
14144;DHT22;7152;48.348;10.980;2022-12-26T00:32:32;6.70;99.90
14144;DHT22;7152;48.348;10.980;2022-12-26T00:34:57;6.60;99.90
14144;DHT22;7152;48.348;10.980;2022-12-26T00:37:23;6.60;99.90
14144;DHT22;7152;48.348;10.980;2022-12-26T00:39:49;6.60;99.90
14144;DHT22;7152;48.348;10.980;2022-12-26T00:42:14;6.60;99.90
14144;DHT22;7152;48.348;10.980;2022-12-26T00:44:40;6.60;99.90
14144;DHT22;7152;48.348;10.980;2022-12-26T00:47:05;6.50;99.90
14144;DHT22;7152;48.348;10.980;2022-12-26T00:49:31;6.50;99.90
14144;DHT22;7152;48.348;10.980;2022-12-26T00:51:57;6.40;99.90
14144;DHT22;7152;48.348;10.980;2022-12-26T00:54:22;6.40;99.90
14144;DHT22;7152;48.348;10.980;2022-12-26T00:56:48;6.30;99.90
14144;DHT22;7152;48.348;10.980;2022-12-26T00:59:13;6.30;99.90
14144;DHT22;7152;48.348;10.980;2022-12-26T01:01:39;6.20;99.90
14144;DHT22;7152;48.348;10.980;2022-12-26T01:04:05;6.20;99.90
14144;DHT22;7152;48.348;10.980;2022-12-26T01:06:31;6.20;99.90
14144;DHT22;7152;48.348;10.980;2022-12-26T01:08:56;6.20;99.90
14144;DHT22;7152;48.348;10.980;2022-12-26T01:11:23;6.20;99.90
14144;DHT22;7152;48.348;10.980;2022-12-26T01:14:06;6.20;99.90
14144;DHT22;7152;48.348;10.980;2022-12-26T01:16:32;6.20;99.90
14144;DHT22;7152;48.348;10.980;2022-12-26T01:18:57;6.20;99.90
14144;DHT22;7152;48.348;10.980;2022-12-26T01:21:23;6.20;99.90
14144;DHT22;7152;48.348;10.980;2022-12-26T01:23:48;6.10;99.90
14144;DHT22;7152;48.348;10.980;2022-12-26T01:26:14;6.10;99.90
14144;DHT22;7152;48.348;10.980;2022-12-26T01:28:40;6.10;99.90
14144;DHT22;7152;48.348;10.980;2022-12-26T01:31:05;6.10;99.90
14144;DHT22;7152;48.348;10.980;2022-12-26T01:33:31;6.10;99.90
14144;DHT22;7152;48.348;10.980;2022-12-26T01:35:58;6.00;99.90
14144;DHT22;7152;48.348;10.980;2022-12-26T01:38:24;6.10;99.90
14144;DHT22;7152;48.348;10.980;2022-12-26T01:40:49;6.10;99.90
14144;DHT22;7152;48.348;10.980;2022-12-26T01:43:59;5.90;99.90
14144;DHT22;7152;48.348;10.980;2022-12-26T01:46:37;6.00;99.90
14144;DHT22;7152;48.348;10.980;2022-12-26T01:49:14;6.00;99.90
14144;DHT22;7152;48.348;10.980;2022-12-26T01:51:45;5.90;99.90
14144;DHT22;7152;48.348;10.980;2022-12-26T01:54:13;5.90;99.90
14144;DHT22;7152;48.348;10.980;2022-12-26T01:56:41;5.80;99.90
14144;DHT22;7152;48.348;10.980;2022-12-26T01:59:11;5.80;99.90
14144;DHT22;7152;48.348;10.980;2022-12-26T02:01:40;5.80;99.90
14144;DHT22;7152;48.348;10.980;2022-12-26T02:04:10;5.70;99.90
14144;DHT22;7152;48.348;10.980;2022-12-26T02:06:56;5.70;99.90
14144;DHT22;7152;48.348;10.980;2022-12-26T02:09:21;5.70;99.90
14144;DHT22;7152;48.348;10.980;2022-12-26T02:14:35;5.50;99.90
14144;DHT22;7152;48.348;10.980;2022-12-26T02:17:01;5.50;99.90
14144;DHT22;7152;48.348;10.980;2022-12-26T02:28:27;5.30;99.90
14144;DHT22;7152;48.348;10.980;2022-12-26T02:31:01;5.30;99.90
14144;DHT22;7152;48.348;10.980;2022-12-26T02:36:58;5.40;99.90
14144;DHT22;7152;48.348;10.980;2022-12-26T02:40:01;5.40;99.90
14144;DHT22;7152;48.348;10.980;2022-12-26T02:56:56;5.50;99.90
14144;DHT22;7152;48.348;10.980;2022-12-26T03:02:52;5.50;99.90
14144;DHT22;7152;48.348;10.980;2022-12-26T03:05:43;5.40;99.90
14144;DHT22;7152;48.348;10.980;2022-12-26T03:08:43;5.40;99.90
14144;DHT22;7152;48.348;10.980;2022-12-26T03:11:38;5.30;99.90
14144;DHT22;7152;48.348;10.980;2022-12-26T03:14:49;5.30;99.90
14144;DHT22;7152;48.348;10.980;2022-12-26T03:17:24;5.30;99.90
14144;DHT22;7152;48.348;10.980;2022-12-26T03:19:58;5.30;99.90
14144;DHT22;7152;48.348;10.980;2022-12-26T03:22:35;5.30;99.90
14144;DHT22;7152;48.348;10.980;2022-12-26T03:25:06;5.40;99.90
14144;DHT22;7152;48.348;10.980;2022-12-26T03:27:52;5.40;99.90
14144;DHT22;7152;48.348;10.980;2022-12-26T03:30:18;5.40;99.90
14144;DHT22;7152;48.348;10.980;2022-12-26T03:33:02;5.40;99.90
14144;DHT22;7152;48.348;10.980;2022-12-26T03:35:30;5.40;99.90
14144;DHT22;7152;48.348;10.980;2022-12-26T03:38:03;5.40;99.90
14144;DHT22;7152;48.348;10.980;2022-12-26T03:40:53;5.40;99.90
14144;DHT22;7152;48.348;10.980;2022-12-26T03:43:47;5.40;99.90
14144;DHT22;7152;48.348;10.980;2022-12-26T03:50:21;5.40;99.90
14144;DHT22;7152;48.348;10.980;2022-12-26T03:53:16;5.40;99.90
14144;DHT22;7152;48.348;10.980;2022-12-26T03:56:10;5.40;99.90
14144;DHT22;7152;48.348;10.980;2022-12-26T03:59:08;5.30;99.90
14144;DHT22;7152;48.348;10.980;2022-12-26T04:01:54;5.40;99.90
14144;DHT22;7152;48.348;10.980;2022-12-26T04:04:42;5.30;99.90
14144;DHT22;7152;48.348;10.980;2022-12-26T04:07:31;5.30;99.90
14144;DHT22;7152;48.348;10.980;2022-12-26T04:10:21;5.30;99.90
14144;DHT22;7152;48.348;10.980;2022-12-26T04:13:14;5.30;99.90
14144;DHT22;7152;48.348;10.980;2022-12-26T04:16:30;5.30;99.90
14144;DHT22;7152;48.348;10.980;2022-12-26T04:22:36;5.30;99.90
14144;DHT22;7152;48.348;10.980;2022-12-26T04:25:28;5.30;99.90
14144;DHT22;7152;48.348;10.980;2022-12-26T04:28:13;5.30;99.90
14144;DHT22;7152;48.348;10.980;2022-12-26T04:31:04;5.40;99.90
14144;DHT22;7152;48.348;10.980;2022-12-26T04:33:55;5.40;99.90
14144;DHT22;7152;48.348;10.980;2022-12-26T04:36:48;5.50;99.90
14144;DHT22;7152;48.348;10.980;2022-12-26T04:39:34;5.60;99.90
14144;DHT22;7152;48.348;10.980;2022-12-26T04:42:20;5.70;99.90
14144;DHT22;7152;48.348;10.980;2022-12-26T04:45:06;5.90;99.90
14144;DHT22;7152;48.348;10.980;2022-12-26T04:47:33;6.10;99.90
14144;DHT22;7152;48.348;10.980;2022-12-26T04:50:04;6.30;99.90
14144;DHT22;7152;48.348;10.980;2022-12-26T04:52:40;6.50;99.90
14144;DHT22;7152;48.348;10.980;2022-12-26T04:55:30;6.70;99.90
14144;DHT22;7152;48.348;10.980;2022-12-26T04:57:56;6.90;99.90
14144;DHT22;7152;48.348;10.980;2022-12-26T05:00:24;7.10;99.90
14144;DHT22;7152;48.348;10.980;2022-12-26T05:02:50;7.30;99.90
14144;DHT22;7152;48.348;10.980;2022-12-26T05:05:45;7.50;99.90
14144;DHT22;7152;48.348;10.980;2022-12-26T05:08:34;7.70;99.90
14144;DHT22;7152;48.348;10.980;2022-12-26T05:11:19;7.80;99.90
14144;DHT22;7152;48.348;10.980;2022-12-26T05:13:45;7.90;99.90
14144;DHT22;7152;48.348;10.980;2022-12-26T05:16:10;7.90;99.90
14144;DHT22;7152;48.348;10.980;2022-12-26T05:18:55;8.00;99.90
14144;DHT22;7152;48.348;10.980;2022-12-26T05:21:39;8.00;99.90
14144;DHT22;7152;48.348;10.980;2022-12-26T05:24:26;8.10;99.90
14144;DHT22;7152;48.348;10.980;2022-12-26T05:27:14;8.00;99.90
14144;DHT22;7152;48.348;10.980;2022-12-26T05:29:59;8.00;99.90
14144;DHT22;7152;48.348;10.980;2022-12-26T05:32:25;8.00;99.90
14144;DHT22;7152;48.348;10.980;2022-12-26T05:35:09;8.00;99.90
14144;DHT22;7152;48.348;10.980;2022-12-26T05:37:35;7.90;99.90
14144;DHT22;7152;48.348;10.980;2022-12-26T05:40:01;7.90;99.90
14144;DHT22;7152;48.348;10.980;2022-12-26T05:42:27;7.90;99.90
14144;DHT22;7152;48.348;10.980;2022-12-26T05:44:52;7.90;99.90
14144;DHT22;7152;48.348;10.980;2022-12-26T05:47:18;7.90;99.90
14144;DHT22;7152;48.348;10.980;2022-12-26T05:49:43;7.90;99.90
14144;DHT22;7152;48.348;10.980;2022-12-26T05:52:09;7.90;99.90
14144;DHT22;7152;48.348;10.980;2022-12-26T05:54:35;7.90;99.90
14144;DHT22;7152;48.348;10.980;2022-12-26T05:57:00;7.90;99.90
14144;DHT22;7152;48.348;10.980;2022-12-26T05:59:28;7.90;99.90
14144;DHT22;7152;48.348;10.980;2022-12-26T06:01:54;7.90;99.90
14144;DHT22;7152;48.348;10.980;2022-12-26T06:04:20;7.90;99.90
14144;DHT22;7152;48.348;10.980;2022-12-26T06:06:45;7.90;99.90
14144;DHT22;7152;48.348;10.980;2022-12-26T06:09:11;7.90;99.90
14144;DHT22;7152;48.348;10.980;2022-12-26T06:11:36;7.80;99.90
14144;DHT22;7152;48.348;10.980;2022-12-26T06:14:02;7.80;99.90
14144;DHT22;7152;48.348;10.980;2022-12-26T06:16:29;7.70;99.90
14144;DHT22;7152;48.348;10.980;2022-12-26T06:18:55;7.70;99.90
14144;DHT22;7152;48.348;10.980;2022-12-26T06:21:21;7.70;99.90
14144;DHT22;7152;48.348;10.980;2022-12-26T06:23:48;7.70;99.90
14144;DHT22;7152;48.348;10.980;2022-12-26T06:26:14;7.70;99.90
14144;DHT22;7152;48.348;10.980;2022-12-26T06:28:40;7.60;99.90
14144;DHT22;7152;48.348;10.980;2022-12-26T06:31:09;7.60;99.90
14144;DHT22;7152;48.348;10.980;2022-12-26T06:33:35;7.50;99.90
14144;DHT22;7152;48.348;10.980;2022-12-26T06:36:06;7.50;99.90
14144;DHT22;7152;48.348;10.980;2022-12-26T06:38:32;7.40;99.90
14144;DHT22;7152;48.348;10.980;2022-12-26T06:40:58;7.40;99.90
14144;DHT22;7152;48.348;10.980;2022-12-26T06:43:24;7.40;99.90
14144;DHT22;7152;48.348;10.980;2022-12-26T06:45:57;7.50;99.90
14144;DHT22;7152;48.348;10.980;2022-12-26T06:48:23;7.40;99.90
14144;DHT22;7152;48.348;10.980;2022-12-26T06:50:49;7.30;99.90
14144;DHT22;7152;48.348;10.980;2022-12-26T06:53:14;7.30;99.90
14144;DHT22;7152;48.348;10.980;2022-12-26T06:55:40;7.30;99.90
14144;DHT22;7152;48.348;10.980;2022-12-26T06:58:06;7.30;99.90
14144;DHT22;7152;48.348;10.980;2022-12-26T07:00:31;7.30;99.90
14144;DHT22;7152;48.348;10.980;2022-12-26T07:02:57;7.30;99.90
14144;DHT22;7152;48.348;10.980;2022-12-26T07:05:22;7.30;99.90
14144;DHT22;7152;48.348;10.980;2022-12-26T07:07:51;7.20;99.90
14144;DHT22;7152;48.348;10.980;2022-12-26T07:10:19;7.20;99.90
14144;DHT22;7152;48.348;10.980;2022-12-26T07:12:45;7.20;99.90
14144;DHT22;7152;48.348;10.980;2022-12-26T07:15:11;7.30;99.90
14144;DHT22;7152;48.348;10.980;2022-12-26T07:17:37;7.40;99.90
14144;DHT22;7152;48.348;10.980;2022-12-26T07:20:06;7.40;99.90
14144;DHT22;7152;48.348;10.980;2022-12-26T07:22:32;7.50;99.90
14144;DHT22;7152;48.348;10.980;2022-12-26T07:24:57;7.60;99.90
14144;DHT22;7152;48.348;10.980;2022-12-26T07:27:23;7.70;99.90
14144;DHT22;7152;48.348;10.980;2022-12-26T07:29:49;7.80;99.90
14144;DHT22;7152;48.348;10.980;2022-12-26T07:32:14;7.90;99.90
14144;DHT22;7152;48.348;10.980;2022-12-26T07:34:40;8.00;99.90
14144;DHT22;7152;48.348;10.980;2022-12-26T07:37:06;8.10;99.90
14144;DHT22;7152;48.348;10.980;2022-12-26T07:39:32;8.20;99.90
14144;DHT22;7152;48.348;10.980;2022-12-26T07:41:58;8.30;99.90
14144;DHT22;7152;48.348;10.980;2022-12-26T07:44:28;8.30;99.90
14144;DHT22;7152;48.348;10.980;2022-12-26T07:46:55;8.40;99.90
14144;DHT22;7152;48.348;10.980;2022-12-26T07:49:21;8.40;99.90
14144;DHT22;7152;48.348;10.980;2022-12-26T07:51:47;8.50;99.90
14144;DHT22;7152;48.348;10.980;2022-12-26T07:54:14;8.50;99.90
14144;DHT22;7152;48.348;10.980;2022-12-26T07:56:40;8.60;99.90
14144;DHT22;7152;48.348;10.980;2022-12-26T07:59:06;8.60;99.90
14144;DHT22;7152;48.348;10.980;2022-12-26T08:01:32;8.60;99.90
14144;DHT22;7152;48.348;10.980;2022-12-26T08:03:58;8.70;99.90
14144;DHT22;7152;48.348;10.980;2022-12-26T08:06:23;8.80;99.90
14144;DHT22;7152;48.348;10.980;2022-12-26T08:08:49;8.90;99.90
14144;DHT22;7152;48.348;10.980;2022-12-26T08:11:17;8.90;99.90
14144;DHT22;7152;48.348;10.980;2022-12-26T08:13:43;9.00;99.90
14144;DHT22;7152;48.348;10.980;2022-12-26T08:16:11;9.10;99.90
14144;DHT22;7152;48.348;10.980;2022-12-26T08:18:38;9.20;99.90
14144;DHT22;7152;48.348;10.980;2022-12-26T08:21:03;9.20;99.90
14144;DHT22;7152;48.348;10.980;2022-12-26T08:23:29;9.30;99.90
14144;DHT22;7152;48.348;10.980;2022-12-26T08:25:55;9.40;99.90
14144;DHT22;7152;48.348;10.980;2022-12-26T08:28:21;9.50;99.90
14144;DHT22;7152;48.348;10.980;2022-12-26T08:30:46;9.60;99.90
14144;DHT22;7152;48.348;10.980;2022-12-26T08:33:14;9.70;99.90
14144;DHT22;7152;48.348;10.980;2022-12-26T08:35:40;9.70;99.90
14144;DHT22;7152;48.348;10.980;2022-12-26T08:38:06;9.80;99.90
14144;DHT22;7152;48.348;10.980;2022-12-26T08:40:32;9.90;99.90
14144;DHT22;7152;48.348;10.980;2022-12-26T08:42:58;10.00;99.90
14144;DHT22;7152;48.348;10.980;2022-12-26T08:45:24;10.00;99.90
14144;DHT22;7152;48.348;10.980;2022-12-26T08:47:50;10.10;99.90
14144;DHT22;7152;48.348;10.980;2022-12-26T08:50:16;10.10;99.90
14144;DHT22;7152;48.348;10.980;2022-12-26T08:52:42;10.20;99.90
14144;DHT22;7152;48.348;10.980;2022-12-26T08:55:08;10.30;99.90
14144;DHT22;7152;48.348;10.980;2022-12-26T08:57:34;10.40;99.90
14144;DHT22;7152;48.348;10.980;2022-12-26T09:00:00;10.40;99.90
14144;DHT22;7152;48.348;10.980;2022-12-26T09:02:25;10.50;99.90
14144;DHT22;7152;48.348;10.980;2022-12-26T09:04:51;10.50;99.90
14144;DHT22;7152;48.348;10.980;2022-12-26T09:07:17;10.60;99.90
14144;DHT22;7152;48.348;10.980;2022-12-26T09:09:43;10.60;99.90
14144;DHT22;7152;48.348;10.980;2022-12-26T09:12:09;10.70;99.90
14144;DHT22;7152;48.348;10.980;2022-12-26T09:14:35;10.70;99.90
14144;DHT22;7152;48.348;10.980;2022-12-26T09:17:01;10.80;99.90
14144;DHT22;7152;48.348;10.980;2022-12-26T09:19:26;10.80;99.90
14144;DHT22;7152;48.348;10.980;2022-12-26T09:21:57;10.90;99.90
14144;DHT22;7152;48.348;10.980;2022-12-26T09:24:41;10.80;99.90
14144;DHT22;7152;48.348;10.980;2022-12-26T09:27:08;11.00;99.90
14144;DHT22;7152;48.348;10.980;2022-12-26T09:29:34;11.00;99.90
14144;DHT22;7152;48.348;10.980;2022-12-26T09:31:59;11.00;99.90
14144;DHT22;7152;48.348;10.980;2022-12-26T09:34:25;11.10;99.90
14144;DHT22;7152;48.348;10.980;2022-12-26T09:36:51;11.20;99.90
14144;DHT22;7152;48.348;10.980;2022-12-26T09:39:16;11.20;99.90
14144;DHT22;7152;48.348;10.980;2022-12-26T09:42:11;11.30;99.90
14144;DHT22;7152;48.348;10.980;2022-12-26T09:58:34;11.90;99.90
14144;DHT22;7152;48.348;10.980;2022-12-26T10:01:07;12.00;99.90
14144;DHT22;7152;48.348;10.980;2022-12-26T10:03:47;12.10;99.90
14144;DHT22;7152;48.348;10.980;2022-12-26T10:06:26;12.10;99.90
14144;DHT22;7152;48.348;10.980;2022-12-26T10:14:49;12.40;99.90
14144;DHT22;7152;48.348;10.980;2022-12-26T10:17:30;12.50;99.90
14144;DHT22;7152;48.348;10.980;2022-12-26T10:20:18;12.50;99.90
14144;DHT22;7152;48.348;10.980;2022-12-26T10:25:40;12.70;99.90
14144;DHT22;7152;48.348;10.980;2022-12-26T10:28:25;12.70;99.90
14144;DHT22;7152;48.348;10.980;2022-12-26T10:30:54;12.70;99.90
14144;DHT22;7152;48.348;10.980;2022-12-26T10:33:34;12.70;99.90
14144;DHT22;7152;48.348;10.980;2022-12-26T10:36:01;12.80;99.90
14144;DHT22;7152;48.348;10.980;2022-12-26T10:38:36;12.80;99.90
14144;DHT22;7152;48.348;10.980;2022-12-26T10:41:12;12.80;99.90
14144;DHT22;7152;48.348;10.980;2022-12-26T10:43:39;12.70;99.90
14144;DHT22;7152;48.348;10.980;2022-12-26T10:46:28;12.80;99.90
14144;DHT22;7152;48.348;10.980;2022-12-26T10:48:58;12.70;99.90
14144;DHT22;7152;48.348;10.980;2022-12-26T10:51:24;12.70;99.90
14144;DHT22;7152;48.348;10.980;2022-12-26T10:53:51;12.70;99.90
14144;DHT22;7152;48.348;10.980;2022-12-26T10:56:20;12.60;99.90
14144;DHT22;7152;48.348;10.980;2022-12-26T10:58:56;12.50;99.90
14144;DHT22;7152;48.348;10.980;2022-12-26T11:01:36;12.50;99.90
14144;DHT22;7152;48.348;10.980;2022-12-26T11:04:16;12.40;99.90
14144;DHT22;7152;48.348;10.980;2022-12-26T11:06:43;12.30;99.90
14144;DHT22;7152;48.348;10.980;2022-12-26T11:09:42;12.30;99.90
14144;DHT22;7152;48.348;10.980;2022-12-26T11:12:19;12.20;99.90
14144;DHT22;7152;48.348;10.980;2022-12-26T11:14:46;12.20;99.90
14144;DHT22;7152;48.348;10.980;2022-12-26T11:17:36;12.10;99.90
14144;DHT22;7152;48.348;10.980;2022-12-26T11:20:19;12.00;99.90
14144;DHT22;7152;48.348;10.980;2022-12-26T11:22:46;12.00;99.90
14144;DHT22;7152;48.348;10.980;2022-12-26T11:25:14;11.90;99.90
14144;DHT22;7152;48.348;10.980;2022-12-26T11:27:43;11.80;99.90
14144;DHT22;7152;48.348;10.980;2022-12-26T11:32:38;11.50;99.90
14144;DHT22;7152;48.348;10.980;2022-12-26T11:35:04;11.30;99.90
14144;DHT22;7152;48.348;10.980;2022-12-26T11:37:39;11.20;99.90
14144;DHT22;7152;48.348;10.980;2022-12-26T11:40:11;11.10;99.90
14144;DHT22;7152;48.348;10.980;2022-12-26T11:42:40;11.00;99.90
14144;DHT22;7152;48.348;10.980;2022-12-26T11:45:10;10.90;99.90
14144;DHT22;7152;48.348;10.980;2022-12-26T11:47:36;10.90;99.90
14144;DHT22;7152;48.348;10.980;2022-12-26T11:50:13;10.80;99.90
14144;DHT22;7152;48.348;10.980;2022-12-26T11:55:27;10.60;99.90
14144;DHT22;7152;48.348;10.980;2022-12-26T11:58:18;10.50;99.90
14144;DHT22;7152;48.348;10.980;2022-12-26T12:03:36;10.40;99.90
14144;DHT22;7152;48.348;10.980;2022-12-26T12:06:34;10.30;99.90
14144;DHT22;7152;48.348;10.980;2022-12-26T12:09:25;10.30;99.90
14144;DHT22;7152;48.348;10.980;2022-12-26T12:11:56;10.20;99.90
14144;DHT22;7152;48.348;10.980;2022-12-26T12:15:08;10.20;99.90
14144;DHT22;7152;48.348;10.980;2022-12-26T12:17:59;10.20;99.90
14144;DHT22;7152;48.348;10.980;2022-12-26T12:20:40;10.20;99.90
14144;DHT22;7152;48.348;10.980;2022-12-26T12:23:42;10.20;99.90
14144;DHT22;7152;48.348;10.980;2022-12-26T12:37:28;10.10;99.90
14144;DHT22;7152;48.348;10.980;2022-12-26T12:52:02;9.90;99.90
14144;DHT22;7152;48.348;10.980;2022-12-26T12:57:51;9.80;99.90
14144;DHT22;7152;48.348;10.980;2022-12-26T13:00:21;9.80;99.90
14144;DHT22;7152;48.348;10.980;2022-12-26T13:08:26;9.80;99.90
14144;DHT22;7152;48.348;10.980;2022-12-26T13:10:59;9.80;99.90
14144;DHT22;7152;48.348;10.980;2022-12-26T13:13:34;9.80;99.90
14144;DHT22;7152;48.348;10.980;2022-12-26T13:16:09;9.80;99.90
14144;DHT22;7152;48.348;10.980;2022-12-26T13:18:39;9.70;99.90
14144;DHT22;7152;48.348;10.980;2022-12-26T13:21:11;9.70;99.90
14144;DHT22;7152;48.348;10.980;2022-12-26T13:23:46;9.70;99.90
14144;DHT22;7152;48.348;10.980;2022-12-26T13:26:36;9.60;99.90
14144;DHT22;7152;48.348;10.980;2022-12-26T13:31:35;9.60;99.90
14144;DHT22;7152;48.348;10.980;2022-12-26T13:34:02;9.70;99.90
14144;DHT22;7152;48.348;10.980;2022-12-26T13:37:09;9.70;99.90
14144;DHT22;7152;48.348;10.980;2022-12-26T13:39:33;9.70;99.90
14144;DHT22;7152;48.348;10.980;2022-12-26T13:44:53;9.70;99.90
14144;DHT22;7152;48.348;10.980;2022-12-26T13:47:35;9.70;99.90
14144;DHT22;7152;48.348;10.980;2022-12-26T13:55:58;9.70;99.90
14144;DHT22;7152;48.348;10.980;2022-12-26T14:12:37;9.60;99.90
14144;DHT22;7152;48.348;10.980;2022-12-26T14:15:27;9.50;99.90
14144;DHT22;7152;48.348;10.980;2022-12-26T14:20:45;9.50;99.90
14144;DHT22;7152;48.348;10.980;2022-12-26T14:23:37;9.40;99.90
14144;DHT22;7152;48.348;10.980;2022-12-26T14:26:18;9.50;99.90
14144;DHT22;7152;48.348;10.980;2022-12-26T14:34:52;9.30;99.90
14144;DHT22;7152;48.348;10.980;2022-12-26T14:45:43;9.20;99.90
14144;DHT22;7152;48.348;10.980;2022-12-26T14:50:49;9.20;99.90
14144;DHT22;7152;48.348;10.980;2022-12-26T14:55:50;9.20;99.90
14144;DHT22;7152;48.348;10.980;2022-12-26T14:58:24;9.10;99.90
14144;DHT22;7152;48.348;10.980;2022-12-26T15:00:51;9.10;99.90
14144;DHT22;7152;48.348;10.980;2022-12-26T15:30:36;8.90;99.90
14144;DHT22;7152;48.348;10.980;2022-12-26T15:33:14;8.90;99.90
14144;DHT22;7152;48.348;10.980;2022-12-26T15:36:03;8.80;99.90
14144;DHT22;7152;48.348;10.980;2022-12-26T15:39:00;8.80;99.90
14144;DHT22;7152;48.348;10.980;2022-12-26T15:41:33;8.80;99.90
14144;DHT22;7152;48.348;10.980;2022-12-26T15:47:06;8.80;99.90
14144;DHT22;7152;48.348;10.980;2022-12-26T16:03:23;8.60;99.90
14144;DHT22;7152;48.348;10.980;2022-12-26T16:06:42;8.60;99.90
14144;DHT22;7152;48.348;10.980;2022-12-26T16:11:22;8.60;99.90
14144;DHT22;7152;48.348;10.980;2022-12-26T16:14:02;8.60;99.90
14144;DHT22;7152;48.348;10.980;2022-12-26T16:16:36;8.50;99.90
14144;DHT22;7152;48.348;10.980;2022-12-26T16:19:17;8.50;99.90
14144;DHT22;7152;48.348;10.980;2022-12-26T16:21:46;8.40;99.90
14144;DHT22;7152;48.348;10.980;2022-12-26T16:24:34;8.40;99.90
14144;DHT22;7152;48.348;10.980;2022-12-26T16:27:03;8.40;99.90
14144;DHT22;7152;48.348;10.980;2022-12-26T16:29:30;8.40;99.90
14144;DHT22;7152;48.348;10.980;2022-12-26T16:32:03;8.40;99.90
14144;DHT22;7152;48.348;10.980;2022-12-26T16:34:34;8.40;99.90
14144;DHT22;7152;48.348;10.980;2022-12-26T16:37:01;8.30;99.90
14144;DHT22;7152;48.348;10.980;2022-12-26T16:39:27;8.30;99.90
14144;DHT22;7152;48.348;10.980;2022-12-26T16:42:02;8.30;99.90
14144;DHT22;7152;48.348;10.980;2022-12-26T16:47:05;8.30;99.90
14144;DHT22;7152;48.348;10.980;2022-12-26T16:49:32;8.30;99.90
14144;DHT22;7152;48.348;10.980;2022-12-26T16:51:58;8.30;99.90
14144;DHT22;7152;48.348;10.980;2022-12-26T16:54:36;8.30;99.90
14144;DHT22;7152;48.348;10.980;2022-12-26T16:57:17;8.30;99.90
14144;DHT22;7152;48.348;10.980;2022-12-26T17:02:23;8.20;99.90
14144;DHT22;7152;48.348;10.980;2022-12-26T17:05:02;8.20;99.90
14144;DHT22;7152;48.348;10.980;2022-12-26T17:07:29;8.20;99.90
14144;DHT22;7152;48.348;10.980;2022-12-26T17:09:57;8.20;99.90
14144;DHT22;7152;48.348;10.980;2022-12-26T17:12:29;8.20;99.90
14144;DHT22;7152;48.348;10.980;2022-12-26T17:14:57;8.20;99.90
14144;DHT22;7152;48.348;10.980;2022-12-26T17:17:34;8.20;99.90
14144;DHT22;7152;48.348;10.980;2022-12-26T17:22:52;8.20;99.90
14144;DHT22;7152;48.348;10.980;2022-12-26T17:25:29;8.20;99.90
14144;DHT22;7152;48.348;10.980;2022-12-26T17:30:38;8.20;99.90
14144;DHT22;7152;48.348;10.980;2022-12-26T17:33:25;8.20;99.90
14144;DHT22;7152;48.348;10.980;2022-12-26T17:35:57;8.20;99.90
14144;DHT22;7152;48.348;10.980;2022-12-26T17:38:26;8.20;99.90
14144;DHT22;7152;48.348;10.980;2022-12-26T17:40:54;8.20;99.90
14144;DHT22;7152;48.348;10.980;2022-12-26T17:45:48;8.20;99.90
14144;DHT22;7152;48.348;10.980;2022-12-26T17:48:14;8.20;99.90
14144;DHT22;7152;48.348;10.980;2022-12-26T17:50:45;8.10;99.90
14144;DHT22;7152;48.348;10.980;2022-12-26T17:53:27;8.10;99.90
14144;DHT22;7152;48.348;10.980;2022-12-26T17:56:09;8.20;99.90
14144;DHT22;7152;48.348;10.980;2022-12-26T17:58:35;8.10;99.90
14144;DHT22;7152;48.348;10.980;2022-12-26T18:01:01;8.20;99.90
14144;DHT22;7152;48.348;10.980;2022-12-26T18:03:27;8.10;99.90
14144;DHT22;7152;48.348;10.980;2022-12-26T18:05:53;8.20;99.90
14144;DHT22;7152;48.348;10.980;2022-12-26T18:08:30;8.20;99.90
14144;DHT22;7152;48.348;10.980;2022-12-26T18:10:57;8.20;99.90
14144;DHT22;7152;48.348;10.980;2022-12-26T18:13:23;8.20;99.90
14144;DHT22;7152;48.348;10.980;2022-12-26T18:15:50;8.20;99.90
14144;DHT22;7152;48.348;10.980;2022-12-26T18:18:38;8.20;99.90
14144;DHT22;7152;48.348;10.980;2022-12-26T18:21:06;8.20;99.90
14144;DHT22;7152;48.348;10.980;2022-12-26T18:23:32;8.20;99.90
14144;DHT22;7152;48.348;10.980;2022-12-26T18:26:02;8.30;99.90
14144;DHT22;7152;48.348;10.980;2022-12-26T18:28:28;8.20;99.90
14144;DHT22;7152;48.348;10.980;2022-12-26T18:30:53;8.20;99.90
14144;DHT22;7152;48.348;10.980;2022-12-26T18:33:21;8.20;99.90
14144;DHT22;7152;48.348;10.980;2022-12-26T18:35:46;8.30;99.90
14144;DHT22;7152;48.348;10.980;2022-12-26T18:38:17;8.30;99.90
14144;DHT22;7152;48.348;10.980;2022-12-26T18:40:50;8.20;99.90
14144;DHT22;7152;48.348;10.980;2022-12-26T18:43:22;8.40;99.90
14144;DHT22;7152;48.348;10.980;2022-12-26T18:45:47;8.30;99.90
14144;DHT22;7152;48.348;10.980;2022-12-26T18:48:15;8.30;99.90
14144;DHT22;7152;48.348;10.980;2022-12-26T18:50:41;8.30;99.90
14144;DHT22;7152;48.348;10.980;2022-12-26T18:53:07;8.30;99.90
14144;DHT22;7152;48.348;10.980;2022-12-26T18:55:32;8.40;99.90
14144;DHT22;7152;48.348;10.980;2022-12-26T18:57:58;8.40;99.90
14144;DHT22;7152;48.348;10.980;2022-12-26T19:00:24;8.40;99.90
14144;DHT22;7152;48.348;10.980;2022-12-26T19:02:50;8.40;99.90
14144;DHT22;7152;48.348;10.980;2022-12-26T19:05:23;8.40;99.90
14144;DHT22;7152;48.348;10.980;2022-12-26T19:07:51;8.50;99.90
14144;DHT22;7152;48.348;10.980;2022-12-26T19:10:18;8.50;99.90
14144;DHT22;7152;48.348;10.980;2022-12-26T19:12:45;8.50;99.90
14144;DHT22;7152;48.348;10.980;2022-12-26T19:15:12;8.50;99.90
14144;DHT22;7152;48.348;10.980;2022-12-26T19:17:38;8.50;99.90
14144;DHT22;7152;48.348;10.980;2022-12-26T19:20:15;8.50;99.90
14144;DHT22;7152;48.348;10.980;2022-12-26T19:22:42;8.60;99.90
14144;DHT22;7152;48.348;10.980;2022-12-26T19:25:08;8.60;99.90
14144;DHT22;7152;48.348;10.980;2022-12-26T19:27:34;8.60;99.90
14144;DHT22;7152;48.348;10.980;2022-12-26T19:29:59;8.60;99.90
14144;DHT22;7152;48.348;10.980;2022-12-26T19:32:25;8.60;99.90
14144;DHT22;7152;48.348;10.980;2022-12-26T19:34:50;8.60;99.90
14144;DHT22;7152;48.348;10.980;2022-12-26T19:37:23;8.60;99.90
14144;DHT22;7152;48.348;10.980;2022-12-26T19:39:49;8.60;99.90
14144;DHT22;7152;48.348;10.980;2022-12-26T19:42:15;8.60;99.90
14144;DHT22;7152;48.348;10.980;2022-12-26T19:44:40;8.60;99.90